sensor_id;sensor_type;location;lat;lon;timestamp;temperature;humidity
36214;DHT22;37652;50.400;30.628;2022-11-20T00:00:45;-1.50;66.20
36214;DHT22;37652;50.400;30.628;2022-11-20T00:02:46;-1.60;66.50
36214;DHT22;37652;50.400;30.628;2022-11-20T00:04:46;-1.60;66.70
36214;DHT22;37652;50.400;30.628;2022-11-20T00:06:47;-1.60;67.00
36214;DHT22;37652;50.400;30.628;2022-11-20T00:08:48;-1.20;67.60
36214;DHT22;37652;50.400;30.628;2022-11-20T00:10:49;-1.30;68.10
36214;DHT22;37652;50.400;30.628;2022-11-20T00:12:49;-1.80;68.20
36214;DHT22;37652;50.400;30.628;2022-11-20T00:14:50;-1.80;68.60
36214;DHT22;37652;50.400;30.628;2022-11-20T00:16:51;-1.90;69.10
36214;DHT22;37652;50.400;30.628;2022-11-20T00:18:52;-1.90;69.70
36214;DHT22;37652;50.400;30.628;2022-11-20T00:20:53;-1.90;70.20
36214;DHT22;37652;50.400;30.628;2022-11-20T00:22:54;-1.90;70.60
36214;DHT22;37652;50.400;30.628;2022-11-20T00:24:54;-1.90;70.80
36214;DHT22;37652;50.400;30.628;2022-11-20T00:26:57;-1.40;71.20
36214;DHT22;37652;50.400;30.628;2022-11-20T00:28:59;-2.00;71.20
36214;DHT22;37652;50.400;30.628;2022-11-20T00:31:08;-2.10;71.40
36214;DHT22;37652;50.400;30.628;2022-11-20T00:33:09;-2.10;71.50
36214;DHT22;37652;50.400;30.628;2022-11-20T00:35:10;-2.10;71.70
36214;DHT22;37652;50.400;30.628;2022-11-20T00:37:11;-2.20;72.00
36214;DHT22;37652;50.400;30.628;2022-11-20T00:39:11;-2.20;72.10
36214;DHT22;37652;50.400;30.628;2022-11-20T00:41:14;-2.20;72.80
36214;DHT22;37652;50.400;30.628;2022-11-20T00:43:15;-2.30;72.40
36214;DHT22;37652;50.400;30.628;2022-11-20T00:45:16;-2.30;72.60
36214;DHT22;37652;50.400;30.628;2022-11-20T00:47:17;-2.30;72.80
36214;DHT22;37652;50.400;30.628;2022-11-20T00:49:20;-2.30;73.70
36214;DHT22;37652;50.400;30.628;2022-11-20T00:51:23;-2.30;73.40
36214;DHT22;37652;50.400;30.628;2022-11-20T00:53:25;-2.30;73.70
36214;DHT22;37652;50.400;30.628;2022-11-20T00:55:26;-2.30;73.90
36214;DHT22;37652;50.400;30.628;2022-11-20T00:57:26;-2.40;74.00
36214;DHT22;37652;50.400;30.628;2022-11-20T00:59:27;-2.30;74.30
36214;DHT22;37652;50.400;30.628;2022-11-20T01:01:28;-2.40;74.30
36214;DHT22;37652;50.400;30.628;2022-11-20T01:03:32;-2.40;74.50
36214;DHT22;37652;50.400;30.628;2022-11-20T01:05:34;-2.00;74.80
36214;DHT22;37652;50.400;30.628;2022-11-20T01:07:35;-2.40;74.70
36214;DHT22;37652;50.400;30.628;2022-11-20T01:09:36;-2.40;74.70
36214;DHT22;37652;50.400;30.628;2022-11-20T01:11:40;-2.40;74.70
36214;DHT22;37652;50.400;30.628;2022-11-20T01:13:42;-2.40;74.70
36214;DHT22;37652;50.400;30.628;2022-11-20T01:15:43;-2.40;74.70
36214;DHT22;37652;50.400;30.628;2022-11-20T01:17:44;-2.30;74.70
36214;DHT22;37652;50.400;30.628;2022-11-20T01:19:44;-2.30;75.00
36214;DHT22;37652;50.400;30.628;2022-11-20T01:21:52;-2.30;75.10
36214;DHT22;37652;50.400;30.628;2022-11-20T01:23:54;-2.30;75.20
36214;DHT22;37652;50.400;30.628;2022-11-20T01:25:54;-2.30;75.00
36214;DHT22;37652;50.400;30.628;2022-11-20T01:27:55;-2.20;74.90
36214;DHT22;37652;50.400;30.628;2022-11-20T01:29:56;-2.10;74.80
36214;DHT22;37652;50.400;30.628;2022-11-20T01:31:57;-1.30;75.00
36214;DHT22;37652;50.400;30.628;2022-11-20T01:34:00;-2.20;74.60
36214;DHT22;37652;50.400;30.628;2022-11-20T01:36:05;-2.10;74.70
36214;DHT22;37652;50.400;30.628;2022-11-20T01:38:06;-2.10;74.70
36214;DHT22;37652;50.400;30.628;2022-11-20T01:40:07;-2.10;74.50
36214;DHT22;37652;50.400;30.628;2022-11-20T01:42:08;-2.10;74.70
36214;DHT22;37652;50.400;30.628;2022-11-20T01:45:00;-2.10;74.80
36214;DHT22;37652;50.400;30.628;2022-11-20T01:47:02;-2.10;75.00
36214;DHT22;37652;50.400;30.628;2022-11-20T01:51:35;-2.00;74.90
36214;DHT22;37652;50.400;30.628;2022-11-20T01:53:39;-2.00;74.80
36214;DHT22;37652;50.400;30.628;2022-11-20T01:55:43;-2.00;74.80
36214;DHT22;37652;50.400;30.628;2022-11-20T01:57:48;-1.70;75.00
36214;DHT22;37652;50.400;30.628;2022-11-20T01:59:56;-1.90;74.90
36214;DHT22;37652;50.400;30.628;2022-11-20T02:01:57;-1.90;74.90
36214;DHT22;37652;50.400;30.628;2022-11-20T02:03:59;-2.00;74.90
36214;DHT22;37652;50.400;30.628;2022-11-20T02:08:17;-1.90;74.90
36214;DHT22;37652;50.400;30.628;2022-11-20T02:10:20;-1.90;75.00
36214;DHT22;37652;50.400;30.628;2022-11-20T02:12:21;-1.80;74.90
36214;DHT22;37652;50.400;30.628;2022-11-20T02:14:40;-1.90;74.90
36214;DHT22;37652;50.400;30.628;2022-11-20T02:16:45;-1.90;74.70
36214;DHT22;37652;50.400;30.628;2022-11-20T02:18:47;-1.80;74.70
36214;DHT22;37652;50.400;30.628;2022-11-20T02:20:52;-1.80;74.60
36214;DHT22;37652;50.400;30.628;2022-11-20T02:23:05;-1.80;74.60
36214;DHT22;37652;50.400;30.628;2022-11-20T02:25:10;-1.80;74.60
36214;DHT22;37652;50.400;30.628;2022-11-20T02:27:15;-1.80;74.70
36214;DHT22;37652;50.400;30.628;2022-11-20T02:29:23;-1.30;74.90
36214;DHT22;37652;50.400;30.628;2022-11-20T02:31:24;-1.40;74.70
36214;DHT22;37652;50.400;30.628;2022-11-20T02:33:25;-1.80;74.60
36214;DHT22;37652;50.400;30.628;2022-11-20T02:37:32;-1.80;74.40
36214;DHT22;37652;50.400;30.628;2022-11-20T02:39:33;-1.80;74.40
36214;DHT22;37652;50.400;30.628;2022-11-20T02:41:35;-1.80;74.40
36214;DHT22;37652;50.400;30.628;2022-11-20T02:43:36;-1.80;74.40
36214;DHT22;37652;50.400;30.628;2022-11-20T02:45:37;-1.70;74.40
36214;DHT22;37652;50.400;30.628;2022-11-20T02:47:38;-1.70;74.40
36214;DHT22;37652;50.400;30.628;2022-11-20T02:49:38;-1.70;74.30
36214;DHT22;37652;50.400;30.628;2022-11-20T02:51:39;-1.80;74.20
36214;DHT22;37652;50.400;30.628;2022-11-20T02:53:40;-1.70;74.20
36214;DHT22;37652;50.400;30.628;2022-11-20T02:55:40;-1.80;74.30
36214;DHT22;37652;50.400;30.628;2022-11-20T02:57:41;-1.90;74.40
36214;DHT22;37652;50.400;30.628;2022-11-20T02:59:42;-1.80;74.40
36214;DHT22;37652;50.400;30.628;2022-11-20T03:01:42;-1.80;74.30
36214;DHT22;37652;50.400;30.628;2022-11-20T03:03:43;-1.80;74.40
36214;DHT22;37652;50.400;30.628;2022-11-20T03:05:44;-1.90;74.40
36214;DHT22;37652;50.400;30.628;2022-11-20T03:07:44;-1.90;74.50
36214;DHT22;37652;50.400;30.628;2022-11-20T03:09:45;-1.80;74.60
36214;DHT22;37652;50.400;30.628;2022-11-20T03:11:46;-1.00;75.00
36214;DHT22;37652;50.400;30.628;2022-11-20T03:13:46;-1.90;74.60
36214;DHT22;37652;50.400;30.628;2022-11-20T03:15:47;-1.90;74.50
36214;DHT22;37652;50.400;30.628;2022-11-20T03:17:48;-1.90;74.60
36214;DHT22;37652;50.400;30.628;2022-11-20T03:19:48;-1.50;74.80
36214;DHT22;37652;50.400;30.628;2022-11-20T03:21:49;-1.90;74.60
36214;DHT22;37652;50.400;30.628;2022-11-20T03:23:50;-1.90;74.50
36214;DHT22;37652;50.400;30.628;2022-11-20T03:25:51;-1.60;74.70
36214;DHT22;37652;50.400;30.628;2022-11-20T03:27:52;-1.90;74.70
36214;DHT22;37652;50.400;30.628;2022-11-20T03:29:52;-1.90;74.80
36214;DHT22;37652;50.400;30.628;2022-11-20T03:31:53;-1.00;75.30
36214;DHT22;37652;50.400;30.628;2022-11-20T03:33:54;-2.00;74.90
36214;DHT22;37652;50.400;30.628;2022-11-20T03:35:54;-2.00;75.00
36214;DHT22;37652;50.400;30.628;2022-11-20T03:37:55;-2.00;75.20
36214;DHT22;37652;50.400;30.628;2022-11-20T03:39:56;-2.10;75.20
36214;DHT22;37652;50.400;30.628;2022-11-20T03:41:56;-2.10;75.30
36214;DHT22;37652;50.400;30.628;2022-11-20T03:43:59;-1.80;75.60
36214;DHT22;37652;50.400;30.628;2022-11-20T03:46:00;-1.80;75.50
36214;DHT22;37652;50.400;30.628;2022-11-20T03:48:01;-2.00;75.40
36214;DHT22;37652;50.400;30.628;2022-11-20T03:50:03;-2.00;75.50
36214;DHT22;37652;50.400;30.628;2022-11-20T03:52:04;-2.00;75.50
36214;DHT22;37652;50.400;30.628;2022-11-20T03:54:07;-2.10;76.10
36214;DHT22;37652;50.400;30.628;2022-11-20T03:56:09;-2.10;76.50
36214;DHT22;37652;50.400;30.628;2022-11-20T03:58:10;-2.00;76.60
36214;DHT22;37652;50.400;30.628;2022-11-20T04:00:11;-2.00;76.50
36214;DHT22;37652;50.400;30.628;2022-11-20T04:02:13;-2.00;76.40
36214;DHT22;37652;50.400;30.628;2022-11-20T04:04:14;-2.00;76.40
36214;DHT22;37652;50.400;30.628;2022-11-20T04:06:19;-2.00;76.50
36214;DHT22;37652;50.400;30.628;2022-11-20T04:08:20;-2.00;76.50
36214;DHT22;37652;50.400;30.628;2022-11-20T04:10:21;-1.90;76.80
36214;DHT22;37652;50.400;30.628;2022-11-20T04:12:21;-2.10;76.70
36214;DHT22;37652;50.400;30.628;2022-11-20T04:14:22;-2.10;76.80
36214;DHT22;37652;50.400;30.628;2022-11-20T04:16:24;-2.10;77.10
36214;DHT22;37652;50.400;30.628;2022-11-20T04:18:25;-1.60;77.70
36214;DHT22;37652;50.400;30.628;2022-11-20T04:20:26;-2.20;77.70
36214;DHT22;37652;50.400;30.628;2022-11-20T04:22:27;-2.20;77.70
36214;DHT22;37652;50.400;30.628;2022-11-20T04:24:27;-2.20;77.70
36214;DHT22;37652;50.400;30.628;2022-11-20T04:26:29;-2.20;77.50
36214;DHT22;37652;50.400;30.628;2022-11-20T04:28:30;-2.10;77.70
36214;DHT22;37652;50.400;30.628;2022-11-20T04:30:31;-2.10;77.70
36214;DHT22;37652;50.400;30.628;2022-11-20T04:32:31;-2.10;77.70
36214;DHT22;37652;50.400;30.628;2022-11-20T04:34:32;-2.10;77.70
36214;DHT22;37652;50.400;30.628;2022-11-20T04:36:33;-2.00;77.70
36214;DHT22;37652;50.400;30.628;2022-11-20T04:38:34;-2.00;77.60
36214;DHT22;37652;50.400;30.628;2022-11-20T04:40:35;-2.00;77.50
36214;DHT22;37652;50.400;30.628;2022-11-20T04:42:35;-1.80;77.60
36214;DHT22;37652;50.400;30.628;2022-11-20T04:44:39;-1.90;77.80
36214;DHT22;37652;50.400;30.628;2022-11-20T04:46:41;-1.90;77.50
36214;DHT22;37652;50.400;30.628;2022-11-20T04:48:42;-1.90;77.40
36214;DHT22;37652;50.400;30.628;2022-11-20T04:50:43;-1.90;77.30
36214;DHT22;37652;50.400;30.628;2022-11-20T04:52:44;-1.80;77.40
36214;DHT22;37652;50.400;30.628;2022-11-20T04:54:44;-1.80;77.50
36214;DHT22;37652;50.400;30.628;2022-11-20T04:56:45;-1.90;77.30
36214;DHT22;37652;50.400;30.628;2022-11-20T04:58:47;-1.00;77.80
36214;DHT22;37652;50.400;30.628;2022-11-20T05:00:48;-1.90;77.30
36214;DHT22;37652;50.400;30.628;2022-11-20T05:02:52;-1.80;77.30
36214;DHT22;37652;50.400;30.628;2022-11-20T05:04:52;-1.70;77.80
36214;DHT22;37652;50.400;30.628;2022-11-20T05:06:53;-1.80;77.30
36214;DHT22;37652;50.400;30.628;2022-11-20T05:08:54;-1.80;77.30
36214;DHT22;37652;50.400;30.628;2022-11-20T05:10:59;-1.50;77.40
36214;DHT22;37652;50.400;30.628;2022-11-20T05:12:59;-1.70;77.20
36214;DHT22;37652;50.400;30.628;2022-11-20T05:15:00;-1.10;77.40
36214;DHT22;37652;50.400;30.628;2022-11-20T05:17:01;-1.70;77.20
36214;DHT22;37652;50.400;30.628;2022-11-20T05:19:02;-1.70;77.10
36214;DHT22;37652;50.400;30.628;2022-11-20T05:21:03;-1.70;77.20
36214;DHT22;37652;50.400;30.628;2022-11-20T05:23:04;-1.70;77.30
36214;DHT22;37652;50.400;30.628;2022-11-20T05:25:05;-1.70;77.20
36214;DHT22;37652;50.400;30.628;2022-11-20T05:27:05;-1.70;77.10
36214;DHT22;37652;50.400;30.628;2022-11-20T05:29:06;-1.70;77.20
36214;DHT22;37652;50.400;30.628;2022-11-20T05:31:09;-1.70;77.30
36214;DHT22;37652;50.400;30.628;2022-11-20T05:33:10;-1.70;77.10
36214;DHT22;37652;50.400;30.628;2022-11-20T05:35:11;-1.60;77.10
36214;DHT22;37652;50.400;30.628;2022-11-20T05:37:12;-1.60;77.20
36214;DHT22;37652;50.400;30.628;2022-11-20T05:39:12;-1.40;77.10
36214;DHT22;37652;50.400;30.628;2022-11-20T05:41:15;-1.60;77.10
36214;DHT22;37652;50.400;30.628;2022-11-20T05:43:16;-1.60;77.00
36214;DHT22;37652;50.400;30.628;2022-11-20T05:45:17;-0.70;77.40
36214;DHT22;37652;50.400;30.628;2022-11-20T05:47:18;-1.50;76.80
36214;DHT22;37652;50.400;30.628;2022-11-20T05:49:18;-1.00;76.90
36214;DHT22;37652;50.400;30.628;2022-11-20T05:51:19;-1.40;76.40
36214;DHT22;37652;50.400;30.628;2022-11-20T05:53:20;-0.90;76.50
36214;DHT22;37652;50.400;30.628;2022-11-20T05:55:21;-1.50;76.00
36214;DHT22;37652;50.400;30.628;2022-11-20T05:57:22;-1.40;76.00
36214;DHT22;37652;50.400;30.628;2022-11-20T05:59:22;-1.50;75.60
36214;DHT22;37652;50.400;30.628;2022-11-20T06:01:24;-1.40;75.50
36214;DHT22;37652;50.400;30.628;2022-11-20T06:03:25;-1.40;75.30
36214;DHT22;37652;50.400;30.628;2022-11-20T06:05:26;-1.30;75.10
36214;DHT22;37652;50.400;30.628;2022-11-20T06:07:26;-1.00;75.00
36214;DHT22;37652;50.400;30.628;2022-11-20T06:09:27;-0.80;74.90
36214;DHT22;37652;50.400;30.628;2022-11-20T06:11:28;-1.30;74.30
36214;DHT22;37652;50.400;30.628;2022-11-20T06:13:29;-1.30;73.90
36214;DHT22;37652;50.400;30.628;2022-11-20T06:15:29;-1.20;73.90
36214;DHT22;37652;50.400;30.628;2022-11-20T06:17:30;-1.10;73.80
36214;DHT22;37652;50.400;30.628;2022-11-20T06:19:30;-1.10;73.50
36214;DHT22;37652;50.400;30.628;2022-11-20T06:21:31;-1.10;72.80
36214;DHT22;37652;50.400;30.628;2022-11-20T06:23:33;-1.00;72.80
36214;DHT22;37652;50.400;30.628;2022-11-20T06:25:37;-1.00;72.40
36214;DHT22;37652;50.400;30.628;2022-11-20T06:27:38;-0.90;72.20
36214;DHT22;37652;50.400;30.628;2022-11-20T06:29:39;-0.90;71.80
36214;DHT22;37652;50.400;30.628;2022-11-20T06:31:40;-0.90;71.70
36214;DHT22;37652;50.400;30.628;2022-11-20T06:33:43;-0.80;71.60
36214;DHT22;37652;50.400;30.628;2022-11-20T06:35:43;-0.80;71.50
36214;DHT22;37652;50.400;30.628;2022-11-20T06:37:44;-0.80;71.30
36214;DHT22;37652;50.400;30.628;2022-11-20T06:39:45;-0.70;71.10
36214;DHT22;37652;50.400;30.628;2022-11-20T06:41:45;-0.80;70.90
36214;DHT22;37652;50.400;30.628;2022-11-20T06:43:47;-0.80;70.80
36214;DHT22;37652;50.400;30.628;2022-11-20T06:45:57;-0.60;70.60
36214;DHT22;37652;50.400;30.628;2022-11-20T06:47:58;-0.80;70.10
36214;DHT22;37652;50.400;30.628;2022-11-20T06:49:59;-0.70;70.10
36214;DHT22;37652;50.400;30.628;2022-11-20T06:52:00;-0.70;69.90
36214;DHT22;37652;50.400;30.628;2022-11-20T06:54:00;-0.60;69.80
36214;DHT22;37652;50.400;30.628;2022-11-20T06:56:01;-0.60;69.70
36214;DHT22;37652;50.400;30.628;2022-11-20T06:58:02;-0.50;69.60
36214;DHT22;37652;50.400;30.628;2022-11-20T07:00:04;-0.60;69.20
36214;DHT22;37652;50.400;30.628;2022-11-20T07:02:05;-0.70;69.20
36214;DHT22;37652;50.400;30.628;2022-11-20T07:04:05;-0.60;69.40
36214;DHT22;37652;50.400;30.628;2022-11-20T07:06:06;-0.60;69.20
36214;DHT22;37652;50.400;30.628;2022-11-20T07:08:08;-0.60;68.70
36214;DHT22;37652;50.400;30.628;2022-11-20T07:10:09;-0.40;68.60
36214;DHT22;37652;50.400;30.628;2022-11-20T07:12:10;-0.60;68.50
36214;DHT22;37652;50.400;30.628;2022-11-20T07:14:11;-0.60;68.60
36214;DHT22;37652;50.400;30.628;2022-11-20T07:16:11;-0.60;68.70
36214;DHT22;37652;50.400;30.628;2022-11-20T07:18:12;-0.40;68.90
36214;DHT22;37652;50.400;30.628;2022-11-20T07:20:13;-0.50;68.70
36214;DHT22;37652;50.400;30.628;2022-11-20T07:22:14;-0.40;68.50
36214;DHT22;37652;50.400;30.628;2022-11-20T07:24:14;-0.40;68.30
36214;DHT22;37652;50.400;30.628;2022-11-20T07:26:16;-0.40;68.20
36214;DHT22;37652;50.400;30.628;2022-11-20T07:28:16;-0.40;68.20
36214;DHT22;37652;50.400;30.628;2022-11-20T07:30:17;-0.40;68.10
36214;DHT22;37652;50.400;30.628;2022-11-20T07:32:18;-0.30;67.70
36214;DHT22;37652;50.400;30.628;2022-11-20T07:34:19;-0.30;68.10
36214;DHT22;37652;50.400;30.628;2022-11-20T07:36:20;-0.20;67.90
36214;DHT22;37652;50.400;30.628;2022-11-20T07:38:21;-0.20;67.50
36214;DHT22;37652;50.400;30.628;2022-11-20T07:40:21;-0.20;67.40
36214;DHT22;37652;50.400;30.628;2022-11-20T07:42:22;-0.20;67.50
36214;DHT22;37652;50.400;30.628;2022-11-20T07:44:23;-0.10;67.50
36214;DHT22;37652;50.400;30.628;2022-11-20T07:46:23;0.00;67.40
36214;DHT22;37652;50.400;30.628;2022-11-20T07:48:25;0.00;67.20
36214;DHT22;37652;50.400;30.628;2022-11-20T07:50:25;0.00;67.00
36214;DHT22;37652;50.400;30.628;2022-11-20T07:52:26;0.00;66.80
36214;DHT22;37652;50.400;30.628;2022-11-20T07:54:27;0.00;66.80
36214;DHT22;37652;50.400;30.628;2022-11-20T07:56:27;0.00;66.70
36214;DHT22;37652;50.400;30.628;2022-11-20T07:58:32;0.10;66.50
36214;DHT22;37652;50.400;30.628;2022-11-20T08:00:35;0.00;66.50
36214;DHT22;37652;50.400;30.628;2022-11-20T08:02:42;0.10;66.50
36214;DHT22;37652;50.400;30.628;2022-11-20T08:04:42;0.10;66.30
36214;DHT22;37652;50.400;30.628;2022-11-20T08:06:43;0.10;66.30
36214;DHT22;37652;50.400;30.628;2022-11-20T08:08:44;0.10;66.20
36214;DHT22;37652;50.400;30.628;2022-11-20T08:10:44;0.10;66.30
36214;DHT22;37652;50.400;30.628;2022-11-20T08:12:47;0.10;66.30
36214;DHT22;37652;50.400;30.628;2022-11-20T08:15:08;0.10;66.20
36214;DHT22;37652;50.400;30.628;2022-11-20T08:17:08;0.10;66.20
36214;DHT22;37652;50.400;30.628;2022-11-20T08:19:10;0.10;66.30
36214;DHT22;37652;50.400;30.628;2022-11-20T08:21:11;0.10;66.30
36214;DHT22;37652;50.400;30.628;2022-11-20T08:23:12;0.10;66.40
36214;DHT22;37652;50.400;30.628;2022-11-20T08:25:13;0.10;66.60
36214;DHT22;37652;50.400;30.628;2022-11-20T08:27:13;0.10;66.70
36214;DHT22;37652;50.400;30.628;2022-11-20T08:29:14;0.00;66.70
36214;DHT22;37652;50.400;30.628;2022-11-20T08:31:15;0.10;66.80
36214;DHT22;37652;50.400;30.628;2022-11-20T08:33:15;0.00;67.10
36214;DHT22;37652;50.400;30.628;2022-11-20T08:35:17;0.00;67.10
36214;DHT22;37652;50.400;30.628;2022-11-20T08:37:18;0.10;67.10
36214;DHT22;37652;50.400;30.628;2022-11-20T08:39:18;0.00;67.10
36214;DHT22;37652;50.400;30.628;2022-11-20T08:41:19;0.00;67.40
36214;DHT22;37652;50.400;30.628;2022-11-20T08:43:27;0.00;67.40
36214;DHT22;37652;50.400;30.628;2022-11-20T08:45:28;0.10;67.50
36214;DHT22;37652;50.400;30.628;2022-11-20T08:47:28;0.10;67.50
36214;DHT22;37652;50.400;30.628;2022-11-20T08:49:29;0.10;67.50
36214;DHT22;37652;50.400;30.628;2022-11-20T08:51:30;0.10;67.50
36214;DHT22;37652;50.400;30.628;2022-11-20T08:53:32;0.10;67.70
36214;DHT22;37652;50.400;30.628;2022-11-20T08:55:33;0.10;67.70
36214;DHT22;37652;50.400;30.628;2022-11-20T08:57:36;0.10;67.80
36214;DHT22;37652;50.400;30.628;2022-11-20T08:59:37;0.10;67.70
36214;DHT22;37652;50.400;30.628;2022-11-20T09:01:37;0.10;67.80
36214;DHT22;37652;50.400;30.628;2022-11-20T09:03:39;0.10;67.80
36214;DHT22;37652;50.400;30.628;2022-11-20T09:05:40;-0.70;67.40
36214;DHT22;37652;50.400;30.628;2022-11-20T09:07:41;0.00;67.90
36214;DHT22;37652;50.400;30.628;2022-11-20T09:09:42;0.10;68.10
36214;DHT22;37652;50.400;30.628;2022-11-20T09:11:43;0.00;68.00
36214;DHT22;37652;50.400;30.628;2022-11-20T09:13:43;0.00;67.90
36214;DHT22;37652;50.400;30.628;2022-11-20T09:15:44;0.10;68.10
36214;DHT22;37652;50.400;30.628;2022-11-20T09:17:58;0.20;68.00
36214;DHT22;37652;50.400;30.628;2022-11-20T09:19:59;0.30;67.80
36214;DHT22;37652;50.400;30.628;2022-11-20T09:21:59;0.30;67.70
36214;DHT22;37652;50.400;30.628;2022-11-20T09:24:00;0.30;67.60
36214;DHT22;37652;50.400;30.628;2022-11-20T09:26:11;0.30;67.50
36214;DHT22;37652;50.400;30.628;2022-11-20T09:28:12;0.30;67.60
36214;DHT22;37652;50.400;30.628;2022-11-20T09:30:16;0.30;67.80
36214;DHT22;37652;50.400;30.628;2022-11-20T09:32:17;0.40;67.80
36214;DHT22;37652;50.400;30.628;2022-11-20T09:34:18;0.40;67.70
36214;DHT22;37652;50.400;30.628;2022-11-20T09:36:19;0.50;67.70
36214;DHT22;37652;50.400;30.628;2022-11-20T09:38:19;0.50;67.50
36214;DHT22;37652;50.400;30.628;2022-11-20T09:40:28;0.40;67.60
36214;DHT22;37652;50.400;30.628;2022-11-20T09:45:11;0.50;67.40
36214;DHT22;37652;50.400;30.628;2022-11-20T09:54:27;0.70;67.60
36214;DHT22;37652;50.400;30.628;2022-11-20T09:56:30;0.60;67.70
36214;DHT22;37652;50.400;30.628;2022-11-20T09:58:42;0.70;67.80
36214;DHT22;37652;50.400;30.628;2022-11-20T10:00:46;0.90;67.70
36214;DHT22;37652;50.400;30.628;2022-11-20T10:03:05;1.00;67.50
36214;DHT22;37652;50.400;30.628;2022-11-20T10:07:30;1.10;67.00
36214;DHT22;37652;50.400;30.628;2022-11-20T10:09:37;1.20;66.90
36214;DHT22;37652;50.400;30.628;2022-11-20T10:16:25;1.10;67.10
36214;DHT22;37652;50.400;30.628;2022-11-20T10:18:51;1.00;67.20
36214;DHT22;37652;50.400;30.628;2022-11-20T10:26:06;1.10;67.50
36214;DHT22;37652;50.400;30.628;2022-11-20T10:30:31;0.90;67.90
36214;DHT22;37652;50.400;30.628;2022-11-20T10:32:40;0.90;68.30
36214;DHT22;37652;50.400;30.628;2022-11-20T10:35:03;0.90;68.20
36214;DHT22;37652;50.400;30.628;2022-11-20T10:37:16;0.90;68.70
36214;DHT22;37652;50.400;30.628;2022-11-20T10:41:40;0.80;68.90
36214;DHT22;37652;50.400;30.628;2022-11-20T10:43:42;0.70;69.50
36214;DHT22;37652;50.400;30.628;2022-11-20T10:46:00;0.70;69.50
36214;DHT22;37652;50.400;30.628;2022-11-20T10:48:12;0.70;69.60
36214;DHT22;37652;50.400;30.628;2022-11-20T10:50:19;0.70;69.90
36214;DHT22;37652;50.400;30.628;2022-11-20T10:54:44;0.70;70.20
36214;DHT22;37652;50.400;30.628;2022-11-20T10:56:51;0.60;70.20
36214;DHT22;37652;50.400;30.628;2022-11-20T10:59:37;0.60;70.40
36214;DHT22;37652;50.400;30.628;2022-11-20T11:01:17;0.60;70.50
36214;DHT22;37652;50.400;30.628;2022-11-20T11:03:27;0.60;70.60
36214;DHT22;37652;50.400;30.628;2022-11-20T11:05:38;0.60;70.90
36214;DHT22;37652;50.400;30.628;2022-11-20T11:07:40;0.60;70.80
36214;DHT22;37652;50.400;30.628;2022-11-20T11:09:46;0.50;71.00
36214;DHT22;37652;50.400;30.628;2022-11-20T11:11:47;0.60;71.00
36214;DHT22;37652;50.400;30.628;2022-11-20T11:13:48;0.60;71.00
36214;DHT22;37652;50.400;30.628;2022-11-20T11:15:50;0.60;71.20
36214;DHT22;37652;50.400;30.628;2022-11-20T11:17:50;0.60;71.30
36214;DHT22;37652;50.400;30.628;2022-11-20T11:19:59;0.50;71.30
36214;DHT22;37652;50.400;30.628;2022-11-20T11:22:05;0.40;71.90
36214;DHT22;37652;50.400;30.628;2022-11-20T11:24:27;0.40;72.20
36214;DHT22;37652;50.400;30.628;2022-11-20T11:26:29;0.70;72.50
36214;DHT22;37652;50.400;30.628;2022-11-20T11:28:30;0.20;72.60
36214;DHT22;37652;50.400;30.628;2022-11-20T11:30:42;0.20;72.80
36214;DHT22;37652;50.400;30.628;2022-11-20T11:32:43;0.30;72.80
36214;DHT22;37652;50.400;30.628;2022-11-20T11:34:45;0.30;72.90
36214;DHT22;37652;50.400;30.628;2022-11-20T11:36:59;0.40;72.80
36214;DHT22;37652;50.400;30.628;2022-11-20T11:39:04;0.40;72.80
36214;DHT22;37652;50.400;30.628;2022-11-20T11:41:09;0.40;73.00
36214;DHT22;37652;50.400;30.628;2022-11-20T11:43:28;0.40;73.00
36214;DHT22;37652;50.400;30.628;2022-11-20T11:45:55;0.30;72.90
36214;DHT22;37652;50.400;30.628;2022-11-20T11:48:01;0.30;73.30
36214;DHT22;37652;50.400;30.628;2022-11-20T11:52:15;0.20;73.30
36214;DHT22;37652;50.400;30.628;2022-11-20T11:54:22;0.10;73.90
36214;DHT22;37652;50.400;30.628;2022-11-20T11:56:33;0.10;74.10
36214;DHT22;37652;50.400;30.628;2022-11-20T11:58:47;0.10;74.20
36214;DHT22;37652;50.400;30.628;2022-11-20T12:01:00;0.00;74.10
36214;DHT22;37652;50.400;30.628;2022-11-20T12:03:12;-0.10;74.10
36214;DHT22;37652;50.400;30.628;2022-11-20T12:05:49;-0.10;74.20
36214;DHT22;37652;50.400;30.628;2022-11-20T12:07:53;0.00;74.30
36214;DHT22;37652;50.400;30.628;2022-11-20T12:09:57;0.00;74.30
36214;DHT22;37652;50.400;30.628;2022-11-20T12:12:08;0.10;74.30
36214;DHT22;37652;50.400;30.628;2022-11-20T12:16:37;0.10;73.90
36214;DHT22;37652;50.400;30.628;2022-11-20T12:18:39;0.10;74.20
36214;DHT22;37652;50.400;30.628;2022-11-20T12:20:57;0.00;74.40
36214;DHT22;37652;50.400;30.628;2022-11-20T12:23:08;-0.10;74.40
36214;DHT22;37652;50.400;30.628;2022-11-20T12:25:30;-0.20;74.80
36214;DHT22;37652;50.400;30.628;2022-11-20T12:28:10;-0.10;75.20
36214;DHT22;37652;50.400;30.628;2022-11-20T12:30:16;-0.20;75.10
36214;DHT22;37652;50.400;30.628;2022-11-20T12:37:48;-0.20;75.40
36214;DHT22;37652;50.400;30.628;2022-11-20T12:39:40;-0.30;75.40
36214;DHT22;37652;50.400;30.628;2022-11-20T12:49:46;-0.40;76.00
36214;DHT22;37652;50.400;30.628;2022-11-20T13:01:22;-0.40;76.80
36214;DHT22;37652;50.400;30.628;2022-11-20T13:03:47;-0.40;77.20
36214;DHT22;37652;50.400;30.628;2022-11-20T16:38:25;-0.80;81.10
36214;DHT22;37652;50.400;30.628;2022-11-20T16:40:26;-0.80;81.80
36214;DHT22;37652;50.400;30.628;2022-11-20T16:42:27;-1.00;82.10
36214;DHT22;37652;50.400;30.628;2022-11-20T16:44:27;-0.60;82.60
36214;DHT22;37652;50.400;30.628;2022-11-20T16:46:30;-1.10;82.20
36214;DHT22;37652;50.400;30.628;2022-11-20T16:48:31;-1.10;82.30
36214;DHT22;37652;50.400;30.628;2022-11-20T16:50:32;-1.10;82.60
36214;DHT22;37652;50.400;30.628;2022-11-20T16:52:33;-1.10;82.70
36214;DHT22;37652;50.400;30.628;2022-11-20T16:54:34;-1.10;82.50
36214;DHT22;37652;50.400;30.628;2022-11-20T16:56:35;0.90;83.10
36214;DHT22;37652;50.400;30.628;2022-11-20T16:58:35;-1.10;82.40
36214;DHT22;37652;50.400;30.628;2022-11-20T17:00:38;-1.20;82.40
36214;DHT22;37652;50.400;30.628;2022-11-20T17:02:39;-1.10;82.40
36214;DHT22;37652;50.400;30.628;2022-11-20T17:04:39;-1.10;82.40
36214;DHT22;37652;50.400;30.628;2022-11-20T17:06:42;-1.10;82.40
36214;DHT22;37652;50.400;30.628;2022-11-20T17:08:46;-1.10;82.60
36214;DHT22;37652;50.400;30.628;2022-11-20T17:10:47;-1.10;82.50
36214;DHT22;37652;50.400;30.628;2022-11-20T17:12:47;-1.10;82.50
36214;DHT22;37652;50.400;30.628;2022-11-20T17:14:48;-0.90;82.60
36214;DHT22;37652;50.400;30.628;2022-11-20T17:16:49;-1.10;82.50
36214;DHT22;37652;50.400;30.628;2022-11-20T17:18:50;-1.10;82.50
36214;DHT22;37652;50.400;30.628;2022-11-20T17:20:51;-1.30;82.40
36214;DHT22;37652;50.400;30.628;2022-11-20T17:22:52;-1.10;82.60
36214;DHT22;37652;50.400;30.628;2022-11-20T17:24:53;-1.10;82.50